createdAt,value
2019-01-05T00:00:49.479Z,6.77
2019-01-05T00:01:49.470Z,6.80
2019-01-05T00:02:49.456Z,6.81
2019-01-05T00:03:49.443Z,6.82
2019-01-05T00:04:49.433Z,6.81
2019-01-05T00:05:49.422Z,6.84
2019-01-05T00:06:49.415Z,6.84
2019-01-05T00:07:49.397Z,6.80
2019-01-05T00:08:49.389Z,6.90
2019-01-05T00:09:49.375Z,6.85
2019-01-05T00:10:49.368Z,6.87
2019-01-05T00:11:49.356Z,6.85
2019-01-05T00:12:49.341Z,6.85
2019-01-05T00:13:49.335Z,6.80
2019-01-05T00:14:49.326Z,6.91
2019-01-05T00:15:49.310Z,6.84
2019-01-05T00:16:49.300Z,6.84
2019-01-05T00:17:49.289Z,6.85
2019-01-05T00:18:49.276Z,6.78
2019-01-05T00:19:49.267Z,6.85
2019-01-05T00:20:49.256Z,6.70
2019-01-05T00:21:49.241Z,6.77
2019-01-05T00:22:49.228Z,6.72
2019-01-05T00:23:49.218Z,6.74
2019-01-05T00:24:49.211Z,6.67
2019-01-05T00:25:49.201Z,6.73
2019-01-05T00:26:49.182Z,6.73
2019-01-05T00:27:49.172Z,6.81
2019-01-05T00:28:49.165Z,6.87
2019-01-05T00:29:49.151Z,6.77
2019-01-05T00:30:49.141Z,6.91
2019-01-05T00:31:49.127Z,6.87
2019-01-05T00:32:49.119Z,6.92
2019-01-05T00:33:49.105Z,6.91
2019-01-05T00:34:49.093Z,6.92
2019-01-05T00:35:49.089Z,6.91
2019-01-05T00:36:49.074Z,6.88
2019-01-05T00:37:49.059Z,6.90
2019-01-05T00:38:49.051Z,6.90
2019-01-05T00:39:49.037Z,6.85
2019-01-05T00:40:49.025Z,6.88
2019-01-05T00:41:49.015Z,6.96
2019-01-05T00:42:49.002Z,6.92
2019-01-05T00:43:48.992Z,6.92
2019-01-05T00:44:48.979Z,6.99
2019-01-05T00:45:48.968Z,6.99
2019-01-05T00:46:48.958Z,6.96
2019-01-05T00:47:48.947Z,6.91
2019-01-05T00:48:48.934Z,7.00
2019-01-05T00:49:48.922Z,6.96
2019-01-05T00:50:48.915Z,6.90
2019-01-05T00:51:48.903Z,6.87
2019-01-05T00:52:48.896Z,6.96
2019-01-05T00:53:48.881Z,6.91
2019-01-05T00:54:48.867Z,6.97
2019-01-05T00:55:48.856Z,6.92
2019-01-05T00:56:48.890Z,6.97
2019-01-05T00:57:48.832Z,6.87
2019-01-05T00:58:48.826Z,6.88
2019-01-05T00:59:48.810Z,6.82
2019-01-05T01:00:48.799Z,6.84
2019-01-05T01:01:48.787Z,6.84
2019-01-05T01:02:48.777Z,6.85
2019-01-05T01:03:48.767Z,6.85
2019-01-05T01:04:48.755Z,6.90
2019-01-05T01:05:48.742Z,6.97
2019-01-05T01:06:48.737Z,7.00
2019-01-05T01:07:48.720Z,6.99
2019-01-05T01:08:48.709Z,7.04
2019-01-05T01:09:48.699Z,6.99
2019-01-05T01:10:48.692Z,6.99
2019-01-05T01:11:48.677Z,6.96
2019-01-05T01:12:48.670Z,6.96
2019-01-05T01:13:48.659Z,6.97
2019-01-05T01:14:48.648Z,7.07
2019-01-05T01:15:48.630Z,6.96
2019-01-05T01:16:48.622Z,7.08
2019-01-05T01:17:48.607Z,7.10
2019-01-05T01:18:48.596Z,7.19
2019-01-05T01:19:48.586Z,7.11
2019-01-05T01:20:48.577Z,7.15
2019-01-05T01:21:48.566Z,7.06
2019-01-05T01:22:48.557Z,7.10
2019-01-05T01:23:48.540Z,7.13
2019-01-05T01:24:48.528Z,7.15
2019-01-05T01:25:48.523Z,7.18
2019-01-05T01:26:48.506Z,7.08
2019-01-05T01:27:48.496Z,7.22
2019-01-05T01:28:48.488Z,7.08
2019-01-05T01:29:48.476Z,7.18
2019-01-05T01:30:48.461Z,7.15
2019-01-05T01:31:48.458Z,7.18
2019-01-05T01:32:48.437Z,7.22
2019-01-05T01:33:48.427Z,7.18
2019-01-05T01:34:48.415Z,7.21
2019-01-05T01:35:48.407Z,7.13
2019-01-05T01:36:48.392Z,7.24
2019-01-05T01:37:48.380Z,7.22
2019-01-05T01:38:48.370Z,7.24
2019-01-05T01:39:48.358Z,7.24
2019-01-05T01:40:48.351Z,7.25
2019-01-05T01:41:48.343Z,7.28
2019-01-05T01:42:48.354Z,7.31
2019-01-05T01:43:48.350Z,7.29
2019-01-05T01:44:48.355Z,7.29
2019-01-05T01:45:48.295Z,7.26
2019-01-05T01:46:48.297Z,7.33
2019-01-05T01:47:48.299Z,7.36
2019-01-05T01:48:48.302Z,7.39
2019-01-05T01:49:48.246Z,7.26
2019-01-05T01:50:48.240Z,7.33
2019-01-05T01:51:48.222Z,7.25
2019-01-05T01:52:48.212Z,7.21
2019-01-05T01:53:48.201Z,7.36
2019-01-05T01:54:48.189Z,7.36
2019-01-05T01:55:48.179Z,7.31
2019-01-05T01:56:48.166Z,7.39
2019-01-05T01:57:48.155Z,7.21
2019-01-05T01:58:48.149Z,7.25
2019-01-05T01:59:48.142Z,7.26
2019-01-05T02:00:48.123Z,7.21
2019-01-05T02:01:48.111Z,7.36
2019-01-05T02:02:48.098Z,7.37
2019-01-05T02:03:48.087Z,7.36
2019-01-05T02:04:48.080Z,7.36
2019-01-05T02:05:48.065Z,7.37
2019-01-05T02:06:48.052Z,7.44
2019-01-05T02:07:48.041Z,7.44
2019-01-05T02:08:48.031Z,7.37
2019-01-05T02:09:48.019Z,7.37
2019-01-05T02:10:48.012Z,7.44
2019-01-05T02:11:48.004Z,7.34
2019-01-05T02:12:47.990Z,7.46
2019-01-05T02:13:47.973Z,7.44
2019-01-05T02:14:47.974Z,7.43
2019-01-05T02:15:47.953Z,7.40
2019-01-05T02:16:47.945Z,7.42
2019-01-05T02:17:47.933Z,7.39
2019-01-05T02:18:47.919Z,7.39
2019-01-05T02:19:47.910Z,7.34
2019-01-05T02:20:47.900Z,7.40
2019-01-05T02:21:47.884Z,7.40
2019-01-05T02:22:47.876Z,7.40
2019-01-05T02:23:47.860Z,7.43
2019-01-05T02:24:47.855Z,7.44
2019-01-05T02:25:47.837Z,7.47
2019-01-05T02:26:47.829Z,7.46
2019-01-05T02:27:47.826Z,7.49
2019-01-05T02:28:47.807Z,7.40
2019-01-05T02:29:47.795Z,7.46
2019-01-05T02:30:47.784Z,7.40
2019-01-05T02:31:47.778Z,7.43
2019-01-05T02:32:47.763Z,7.39
2019-01-05T02:33:47.748Z,7.39
2019-01-05T02:34:47.738Z,7.42
2019-01-05T02:35:47.731Z,7.42
2019-01-05T02:36:47.715Z,7.37
2019-01-05T02:37:47.703Z,7.33
2019-01-05T02:38:47.700Z,7.34
2019-01-05T02:39:47.685Z,7.39
2019-01-05T02:40:47.677Z,7.36
2019-01-05T02:41:47.659Z,7.39
2019-01-05T02:42:47.646Z,7.40
2019-01-05T02:43:47.639Z,7.39
2019-01-05T02:44:47.629Z,7.37
2019-01-05T02:45:47.615Z,7.34
2019-01-05T02:46:47.606Z,7.34
2019-01-05T02:47:47.590Z,7.33
2019-01-05T02:48:47.579Z,7.33
2019-01-05T02:49:47.568Z,7.33
2019-01-05T02:50:47.557Z,7.31
2019-01-05T02:51:47.547Z,7.33
2019-01-05T02:52:47.536Z,7.24
2019-01-05T02:53:47.522Z,7.31
2019-01-05T02:54:47.512Z,7.33
2019-01-05T02:55:47.509Z,7.37
2019-01-05T02:56:47.488Z,7.44
2019-01-05T02:57:47.480Z,7.36
2019-01-05T02:58:47.465Z,7.37
2019-01-05T02:59:47.454Z,7.39
2019-01-05T03:00:47.455Z,7.39
2019-01-05T03:01:47.441Z,7.46
2019-01-05T03:02:47.421Z,7.49
2019-01-05T03:03:47.411Z,7.50
2019-01-05T03:04:47.398Z,7.43
2019-01-05T03:05:47.393Z,7.46
2019-01-05T03:06:47.375Z,7.37
2019-01-05T03:07:47.364Z,7.44
2019-01-05T03:08:47.356Z,7.46
2019-01-05T03:09:47.343Z,7.39
2019-01-05T03:10:47.334Z,7.46
2019-01-05T03:11:47.322Z,7.42
2019-01-05T03:12:47.307Z,7.44
2019-01-05T03:13:47.304Z,7.49
2019-01-05T03:14:47.287Z,7.42
2019-01-05T03:15:47.274Z,7.47
2019-01-05T03:16:47.265Z,7.49
2019-01-05T03:17:47.253Z,7.39
2019-01-05T03:18:47.240Z,7.43
2019-01-05T03:19:47.234Z,7.44
2019-01-05T03:20:47.218Z,7.42
2019-01-05T03:21:47.207Z,7.44
2019-01-05T03:22:47.198Z,7.44
2019-01-05T03:23:47.189Z,7.40
2019-01-05T03:24:47.173Z,7.44
2019-01-05T03:25:47.160Z,7.44
2019-01-05T03:26:47.150Z,7.49
2019-01-05T03:27:47.145Z,7.49
2019-01-05T03:28:47.136Z,7.44
2019-01-05T03:29:47.118Z,7.42
2019-01-05T03:30:47.109Z,7.39
2019-01-05T03:31:47.104Z,7.40
2019-01-05T03:32:47.103Z,7.43
2019-01-05T03:33:47.072Z,7.47
2019-01-05T03:34:47.059Z,7.49
2019-01-05T03:35:47.052Z,7.43
2019-01-05T03:36:47.041Z,7.44
2019-01-05T03:37:47.029Z,7.44
2019-01-05T03:38:47.018Z,7.60
2019-01-05T03:39:47.004Z,7.52
2019-01-05T03:40:46.996Z,7.46
2019-01-05T03:41:46.983Z,7.49
2019-01-05T03:42:46.977Z,7.58
2019-01-05T03:43:46.961Z,7.46
2019-01-05T03:44:46.955Z,7.52
2019-01-05T03:45:46.936Z,7.44
2019-01-05T03:46:46.929Z,7.55
2019-01-05T03:47:46.919Z,7.44
2019-01-05T03:48:46.902Z,7.50
2019-01-05T03:49:46.893Z,7.47
2019-01-05T03:50:46.886Z,7.49
2019-01-05T03:51:46.870Z,7.57
2019-01-05T03:52:46.859Z,7.60
2019-01-05T03:53:46.850Z,7.70
2019-01-05T03:54:46.836Z,7.57
2019-01-05T03:55:46.824Z,7.65
2019-01-05T03:56:46.814Z,7.70
2019-01-05T03:57:46.802Z,7.61
2019-01-05T03:58:46.804Z,7.61
2019-01-05T03:59:46.778Z,7.65
2019-01-05T04:00:46.768Z,7.72
2019-01-05T04:01:46.756Z,7.65
2019-01-05T04:02:46.743Z,7.58
2019-01-05T04:03:46.735Z,7.58
2019-01-05T04:04:46.730Z,7.57
2019-01-05T04:05:46.714Z,7.62
2019-01-05T04:06:46.707Z,7.64
2019-01-05T04:07:46.691Z,7.61
2019-01-05T04:08:46.679Z,7.62
2019-01-05T04:09:46.665Z,7.58
2019-01-05T04:10:46.653Z,7.58
2019-01-05T04:11:46.646Z,7.62
2019-01-05T04:12:46.634Z,7.68
2019-01-05T04:13:46.626Z,7.55
2019-01-05T04:14:46.613Z,7.57
2019-01-05T04:15:46.598Z,7.65
2019-01-05T04:16:46.592Z,7.61
2019-01-05T04:17:46.580Z,7.61
2019-01-05T04:18:46.570Z,7.61
2019-01-05T04:19:46.562Z,7.70
2019-01-05T04:20:46.544Z,7.64
2019-01-05T04:21:46.540Z,7.67
2019-01-05T04:22:46.520Z,7.67
2019-01-05T04:23:46.509Z,7.61
2019-01-05T04:24:46.515Z,7.76
2019-01-05T04:25:46.488Z,7.72
2019-01-05T04:26:46.485Z,7.67
2019-01-05T04:27:46.472Z,7.75
2019-01-05T04:28:46.462Z,7.67
2019-01-05T04:29:46.444Z,7.73
2019-01-05T04:30:46.435Z,7.64
2019-01-05T04:31:46.429Z,7.72
2019-01-05T04:32:46.418Z,7.72
2019-01-05T04:33:46.408Z,7.76
2019-01-05T04:34:46.394Z,7.93
2019-01-05T04:35:46.386Z,7.83
2019-01-05T04:36:46.365Z,7.73
2019-01-05T04:37:46.363Z,7.80
2019-01-05T04:38:46.345Z,7.87
2019-01-05T04:39:46.332Z,7.76
2019-01-05T04:40:46.321Z,7.77
2019-01-05T04:41:46.311Z,7.80
2019-01-05T04:42:46.298Z,7.90
2019-01-05T04:43:46.287Z,7.86
2019-01-05T04:44:46.288Z,7.90
2019-01-05T04:45:46.269Z,7.90
2019-01-05T04:46:46.253Z,7.90
2019-01-05T04:47:46.241Z,7.94
2019-01-05T04:48:46.238Z,7.93
2019-01-05T04:49:46.220Z,7.93
2019-01-05T04:50:46.215Z,7.87
2019-01-05T04:51:46.196Z,7.85
2019-01-05T04:52:46.189Z,7.94
2019-01-05T04:53:46.177Z,7.98
2019-01-05T04:54:46.165Z,7.94
2019-01-05T04:55:46.159Z,7.91
2019-01-05T04:56:46.145Z,7.95
2019-01-05T04:57:46.131Z,7.87
2019-01-05T04:58:46.119Z,7.95
2019-01-05T04:59:46.107Z,7.98
2019-01-05T05:00:46.099Z,7.86
2019-01-05T05:01:46.088Z,7.79
2019-01-05T05:02:46.521Z,7.83
2019-01-05T05:03:46.066Z,7.90
2019-01-05T05:04:46.052Z,7.91
2019-01-05T05:05:46.049Z,7.97
2019-01-05T05:06:46.031Z,7.93
2019-01-05T05:07:46.022Z,7.86
2019-01-05T05:08:46.011Z,7.94
2019-01-05T05:09:46.004Z,7.95
2019-01-05T05:10:45.996Z,8.01
2019-01-05T05:11:45.974Z,8.04
2019-01-05T05:12:45.966Z,8.09
2019-01-05T05:13:45.956Z,8.03
2019-01-05T05:14:45.940Z,7.98
2019-01-05T05:15:45.928Z,7.98
2019-01-05T05:16:45.921Z,8.05
2019-01-05T05:17:45.907Z,7.97
2019-01-05T05:18:45.895Z,8.11
2019-01-05T05:19:45.888Z,8.11
2019-01-05T05:20:45.874Z,8.11
2019-01-05T05:21:45.863Z,8.11
2019-01-05T05:22:45.856Z,8.05
2019-01-05T05:23:45.841Z,8.08
2019-01-05T05:24:45.833Z,7.98
2019-01-05T05:25:45.819Z,8.20
2019-01-05T05:26:45.807Z,8.18
2019-01-05T05:27:45.795Z,8.04
2019-01-05T05:28:45.792Z,8.16
2019-01-05T05:29:45.776Z,8.08
2019-01-05T05:30:45.766Z,8.05
2019-01-05T05:31:45.758Z,7.98
2019-01-05T05:32:45.747Z,7.93
2019-01-05T05:33:45.730Z,8.03
2019-01-05T05:34:45.718Z,7.94
2019-01-05T05:35:45.707Z,8.03
2019-01-05T05:36:45.697Z,7.93
2019-01-05T05:37:45.687Z,7.94
2019-01-05T05:38:45.676Z,7.97
2019-01-05T05:39:45.663Z,8.01
2019-01-05T05:40:45.658Z,8.05
2019-01-05T05:41:45.641Z,8.05
2019-01-05T05:42:45.629Z,8.09
2019-01-05T05:43:45.626Z,8.08
2019-01-05T05:44:45.608Z,8.09
2019-01-05T05:45:45.597Z,8.11
2019-01-05T05:46:45.592Z,8.13
2019-01-05T05:47:45.580Z,8.11
2019-01-05T05:48:45.566Z,8.09
2019-01-05T05:49:45.561Z,8.08
2019-01-05T05:50:45.544Z,8.11
2019-01-05T05:51:45.535Z,8.12
2019-01-05T05:52:45.524Z,8.11
2019-01-05T05:53:45.519Z,8.05
2019-01-05T05:54:45.501Z,8.08
2019-01-05T05:55:45.493Z,8.20
2019-01-05T05:56:45.483Z,8.13
2019-01-05T05:57:45.471Z,8.20
2019-01-05T05:58:45.465Z,8.15
2019-01-05T05:59:45.450Z,8.18
2019-01-05T06:00:45.448Z,8.13
2019-01-05T06:01:45.426Z,8.13
2019-01-05T06:02:45.416Z,8.19
2019-01-05T06:03:45.403Z,8.18
2019-01-05T06:04:45.394Z,8.15
2019-01-05T06:05:45.381Z,8.09
2019-01-05T06:06:45.371Z,8.12
2019-01-05T06:07:45.363Z,8.19
2019-01-05T06:08:45.349Z,8.22
2019-01-05T06:09:45.346Z,8.18
2019-01-05T06:10:45.327Z,8.12
2019-01-05T06:11:45.318Z,8.15
2019-01-05T06:12:45.307Z,8.13
2019-01-05T06:13:45.294Z,8.16
2019-01-05T06:14:45.290Z,8.12
2019-01-05T06:15:45.272Z,8.18
2019-01-05T06:16:45.261Z,8.16
2019-01-05T06:17:45.254Z,8.18
2019-01-05T06:18:45.244Z,8.20
2019-01-05T06:19:45.232Z,8.13
2019-01-05T06:20:45.219Z,8.13
2019-01-05T06:21:45.208Z,8.18
2019-01-05T06:22:45.206Z,8.16
2019-01-05T06:23:45.185Z,8.22
2019-01-05T06:24:45.177Z,8.19
2019-01-05T06:25:45.181Z,8.18
2019-01-05T06:26:45.154Z,8.15
2019-01-05T06:27:45.146Z,8.15
2019-01-05T06:28:45.132Z,8.22
2019-01-05T06:29:45.121Z,8.23
2019-01-05T06:30:45.111Z,8.25
2019-01-05T06:31:45.104Z,8.25
2019-01-05T06:32:45.090Z,8.28
2019-01-05T06:33:45.077Z,8.19
2019-01-05T06:34:45.067Z,8.25
2019-01-05T06:35:45.058Z,8.27
2019-01-05T06:36:45.048Z,8.23
2019-01-05T06:37:45.038Z,8.22
2019-01-05T06:38:45.026Z,8.25
2019-01-05T06:39:45.020Z,8.22
2019-01-05T06:40:45.000Z,8.23
2019-01-05T06:41:44.994Z,8.23
2019-01-05T06:42:44.979Z,8.34
2019-01-05T06:43:44.970Z,8.31
2019-01-05T06:44:44.958Z,8.31
2019-01-05T06:45:44.946Z,8.38
2019-01-05T06:46:44.938Z,8.38
2019-01-05T06:47:44.931Z,8.22
2019-01-05T06:48:44.918Z,8.33
2019-01-05T06:49:44.907Z,8.34
2019-01-05T06:50:44.901Z,8.33
2019-01-05T06:51:44.890Z,8.38
2019-01-05T06:52:44.873Z,8.39
2019-01-05T06:53:44.861Z,8.38
2019-01-05T06:54:44.856Z,8.37
2019-01-05T06:55:44.852Z,8.34
2019-01-05T06:56:44.834Z,8.39
2019-01-05T06:57:44.817Z,8.34
2019-01-05T06:58:44.807Z,8.38
2019-01-05T06:59:44.800Z,8.42
2019-01-05T07:00:44.785Z,8.42
2019-01-05T07:01:44.775Z,8.50
2019-01-05T07:02:44.772Z,8.42
2019-01-05T07:03:44.752Z,8.44
2019-01-05T07:04:44.742Z,8.39
2019-01-05T07:05:44.733Z,8.47
2019-01-05T07:06:44.719Z,8.44
2019-01-05T07:07:44.715Z,8.39
2019-01-05T07:08:44.701Z,8.46
2019-01-05T07:09:44.694Z,8.42
2019-01-05T07:10:44.677Z,8.47
2019-01-05T07:11:44.668Z,8.52
2019-01-05T07:12:44.654Z,8.52
2019-01-05T07:13:44.643Z,8.56
2019-01-05T07:14:44.635Z,8.53
2019-01-05T07:15:44.624Z,8.52
2019-01-05T07:16:44.611Z,8.59
2019-01-05T07:17:44.600Z,8.50
2019-01-05T07:18:44.588Z,8.52
2019-01-05T07:19:44.578Z,8.53
2019-01-05T07:20:44.579Z,8.49
2019-01-05T07:21:44.555Z,8.49
2019-01-05T07:22:44.553Z,8.47
2019-01-05T07:23:44.541Z,8.52
2019-01-05T07:24:44.527Z,8.52
2019-01-05T07:25:44.514Z,8.53
2019-01-05T07:26:44.501Z,8.57
2019-01-05T07:27:44.501Z,8.53
2019-01-05T07:28:44.505Z,8.56
2019-01-05T07:29:44.512Z,8.53
2019-01-05T07:30:44.508Z,8.52
2019-01-05T07:31:44.461Z,8.56
2019-01-05T07:32:44.452Z,8.56
2019-01-05T07:33:44.454Z,8.62
2019-01-05T07:34:44.463Z,8.67
2019-01-05T07:35:44.403Z,8.63
2019-01-05T07:36:44.391Z,8.65
2019-01-05T07:37:44.380Z,8.70
2019-01-05T07:38:44.370Z,8.74
2019-01-05T07:39:44.365Z,8.78
2019-01-05T07:40:44.351Z,8.67
2019-01-05T07:41:44.339Z,8.65
2019-01-05T07:42:44.360Z,8.71
2019-01-05T07:43:44.317Z,8.70
2019-01-05T07:44:44.305Z,8.78
2019-01-05T07:45:44.293Z,8.75
2019-01-05T07:46:44.282Z,8.85
2019-01-05T07:47:44.281Z,8.78
2019-01-05T07:48:44.262Z,8.70
2019-01-05T07:49:44.253Z,8.78
2019-01-05T07:50:44.241Z,8.78
2019-01-05T07:51:44.230Z,8.81
2019-01-05T07:52:44.219Z,8.85
2019-01-05T07:53:44.207Z,8.77
2019-01-05T07:54:44.200Z,8.88
2019-01-05T07:55:44.185Z,8.95
2019-01-05T07:56:44.174Z,8.89
2019-01-05T07:57:44.171Z,8.83
2019-01-05T07:58:44.158Z,8.92
2019-01-05T07:59:44.143Z,8.85
2019-01-05T08:00:44.133Z,8.95
2019-01-05T08:01:44.120Z,8.89
2019-01-05T08:02:44.108Z,8.83
2019-01-05T08:03:44.104Z,8.81
2019-01-05T08:04:44.087Z,8.77
2019-01-05T08:05:44.078Z,8.85
2019-01-05T08:06:44.066Z,8.85
2019-01-05T08:07:44.056Z,8.81
2019-01-05T08:08:44.045Z,8.74
2019-01-05T08:09:44.039Z,8.78
2019-01-05T08:10:44.023Z,8.80
2019-01-05T08:11:44.011Z,8.80
2019-01-05T08:12:44.004Z,8.81
2019-01-05T08:13:43.993Z,8.78
2019-01-05T08:14:43.977Z,8.93
2019-01-05T08:15:43.966Z,8.95
2019-01-05T08:16:43.956Z,8.90
2019-01-05T08:17:43.945Z,8.90
2019-01-05T08:18:43.935Z,8.88
2019-01-05T08:19:43.924Z,8.93
2019-01-05T08:20:43.913Z,8.98
2019-01-05T08:21:43.909Z,9.03
2019-01-05T08:22:43.892Z,9.04
2019-01-05T08:23:43.882Z,9.07
2019-01-05T08:24:43.871Z,9.11
2019-01-05T08:25:43.859Z,9.10
2019-01-05T08:26:43.850Z,9.13
2019-01-05T08:27:43.836Z,9.13
2019-01-05T08:28:43.843Z,9.18
2019-01-05T08:29:43.818Z,9.15
2019-01-05T08:30:43.803Z,9.22
2019-01-05T08:31:43.794Z,9.14
2019-01-05T08:32:43.783Z,9.14
2019-01-05T08:33:43.771Z,9.06
2019-01-05T08:34:43.782Z,9.13
2019-01-05T08:35:43.750Z,9.17
2019-01-05T08:36:43.784Z,9.17
2019-01-05T08:37:43.728Z,9.14
2019-01-05T08:38:43.723Z,9.11
2019-01-05T08:39:43.707Z,9.07
2019-01-05T08:40:43.727Z,9.10
2019-01-05T08:41:43.684Z,9.15
2019-01-05T08:42:43.700Z,9.26
2019-01-05T08:43:43.669Z,9.13
2019-01-05T08:44:43.671Z,9.15
2019-01-05T08:45:43.641Z,9.23
2019-01-05T08:46:43.640Z,9.18
2019-01-05T08:47:43.621Z,9.33
2019-01-05T08:48:43.653Z,9.23
2019-01-05T08:49:43.598Z,9.23
2019-01-05T08:50:43.600Z,9.26
2019-01-05T08:51:43.576Z,9.39
2019-01-05T08:52:43.592Z,9.40
2019-01-05T08:53:43.555Z,9.36
2019-01-05T08:54:43.555Z,9.35
2019-01-05T08:55:43.530Z,9.43
2019-01-05T08:56:43.556Z,9.40
2019-01-05T08:57:43.512Z,9.35
2019-01-05T08:58:43.497Z,9.35
2019-01-05T08:59:43.485Z,9.41
2019-01-05T09:00:43.511Z,9.36
2019-01-05T09:01:43.464Z,9.36
2019-01-05T09:02:43.508Z,9.33
2019-01-05T09:03:43.446Z,9.32
2019-01-05T09:04:43.468Z,9.49
2019-01-05T09:05:43.419Z,9.50
2019-01-05T09:06:43.408Z,9.44
2019-01-05T09:07:43.403Z,9.50
2019-01-05T09:08:43.414Z,9.51
2019-01-05T09:09:43.373Z,9.54
2019-01-05T09:10:43.361Z,9.64
2019-01-05T09:11:43.383Z,9.69
2019-01-05T09:12:43.383Z,9.72
2019-01-05T09:13:43.329Z,9.64
2019-01-05T09:14:43.315Z,9.68
2019-01-05T09:15:43.304Z,9.69
2019-01-05T09:16:43.364Z,9.80
2019-01-05T09:17:43.286Z,9.88
2019-01-05T09:18:43.269Z,10.16
2019-01-05T09:19:43.256Z,10.41
2019-01-05T09:20:43.251Z,10.75
2019-01-05T09:21:43.233Z,10.67
2019-01-05T09:22:43.223Z,10.60
2019-01-05T09:23:43.211Z,10.71
2019-01-05T09:24:43.202Z,10.61
2019-01-05T09:25:43.191Z,10.51
2019-01-05T09:26:43.177Z,10.51
2019-01-05T09:27:43.165Z,10.54
2019-01-05T09:28:43.159Z,10.53
2019-01-05T09:29:43.140Z,10.49
2019-01-05T09:30:43.129Z,10.57
2019-01-05T09:31:43.121Z,10.46
2019-01-05T09:32:43.114Z,10.51
2019-01-05T09:33:43.099Z,11.37
2019-01-05T09:34:43.083Z,11.85
2019-01-05T09:35:43.085Z,12.39
2019-01-05T09:36:43.063Z,12.95
2019-01-05T09:37:43.055Z,13.53
2019-01-05T09:38:43.049Z,13.84
2019-01-05T09:39:43.028Z,13.84
2019-01-05T09:40:43.021Z,13.87
2019-01-05T09:41:43.007Z,13.52
2019-01-05T09:42:43.000Z,14.03
2019-01-05T09:43:42.983Z,14.59
2019-01-05T09:44:42.970Z,14.96
2019-01-05T09:45:42.962Z,15.10
2019-01-05T09:46:42.955Z,15.03
2019-01-05T09:47:42.938Z,14.44
2019-01-05T09:48:42.928Z,13.95
2019-01-05T09:49:42.915Z,13.46
2019-01-05T09:50:42.908Z,12.96
2019-01-05T09:51:42.896Z,12.68
2019-01-05T09:52:42.888Z,12.43
2019-01-05T09:53:42.876Z,12.27
2019-01-05T09:54:42.865Z,12.12
2019-01-05T09:55:42.849Z,11.96
2019-01-05T09:56:42.838Z,11.96
2019-01-05T09:57:42.829Z,12.04
2019-01-05T09:58:42.825Z,12.07
2019-01-05T09:59:42.805Z,12.10
2019-01-05T10:00:42.794Z,12.09
2019-01-05T10:01:42.786Z,11.99
2019-01-05T10:02:42.783Z,11.96
2019-01-05T10:03:42.760Z,11.89
2019-01-05T10:04:42.751Z,11.85
2019-01-05T10:05:42.739Z,11.84
2019-01-05T10:06:42.728Z,11.80
2019-01-05T10:07:42.721Z,11.80
2019-01-05T10:08:42.711Z,11.74
2019-01-05T10:09:42.694Z,11.87
2019-01-05T10:10:42.685Z,11.95
2019-01-05T10:11:42.677Z,12.03
2019-01-05T10:12:42.663Z,12.10
2019-01-05T10:13:42.655Z,11.88
2019-01-05T10:14:42.638Z,11.87
2019-01-05T10:15:42.628Z,11.87
2019-01-05T10:16:42.621Z,12.17
2019-01-05T10:17:42.605Z,12.45
2019-01-05T10:18:42.600Z,12.32
2019-01-05T10:19:42.590Z,12.29
2019-01-05T10:20:42.574Z,12.29
2019-01-05T10:21:42.562Z,12.28
2019-01-05T10:22:42.551Z,12.21
2019-01-05T10:23:42.548Z,12.22
2019-01-05T10:24:42.536Z,12.02
2019-01-05T10:25:42.520Z,12.09
2019-01-05T10:26:42.508Z,12.28
2019-01-05T10:27:42.501Z,12.31
2019-01-05T10:28:42.486Z,12.37
2019-01-05T10:29:42.474Z,12.40
2019-01-05T10:30:42.469Z,12.57
2019-01-05T10:31:42.457Z,12.46
2019-01-05T10:32:42.446Z,12.69
2019-01-05T10:33:42.428Z,12.93
2019-01-05T10:34:42.419Z,13.11
2019-01-05T10:35:42.409Z,13.19
2019-01-05T10:36:42.397Z,12.96
2019-01-05T10:37:42.385Z,12.88
2019-01-05T10:38:42.373Z,12.72
2019-01-05T10:39:42.365Z,12.52
2019-01-05T10:40:42.351Z,12.42
2019-01-05T10:41:42.339Z,12.40
2019-01-05T10:42:42.336Z,12.40
2019-01-05T10:43:42.322Z,12.45
2019-01-05T10:44:42.308Z,12.31
2019-01-05T10:45:42.303Z,12.16
2019-01-05T10:46:42.296Z,12.07
2019-01-05T10:47:42.274Z,12.02
2019-01-05T10:48:42.263Z,11.71
2019-01-05T10:49:42.251Z,11.64
2019-01-05T10:50:42.243Z,11.55
2019-01-05T10:51:42.230Z,11.45
2019-01-05T10:52:42.221Z,11.40
2019-01-05T10:53:42.217Z,11.34
2019-01-05T10:54:42.202Z,11.46
2019-01-05T10:55:42.187Z,11.54
2019-01-05T10:56:42.174Z,11.51
2019-01-05T10:57:42.163Z,11.59
2019-01-05T10:58:42.155Z,11.64
2019-01-05T10:59:42.144Z,11.64
2019-01-05T11:00:42.129Z,11.69
2019-01-05T11:01:42.120Z,11.73
2019-01-05T11:02:42.108Z,11.80
2019-01-05T11:03:42.097Z,11.77
2019-01-05T11:04:42.090Z,11.73
2019-01-05T11:05:42.077Z,11.77
2019-01-05T11:06:42.063Z,11.74
2019-01-05T11:07:42.054Z,11.71
2019-01-05T11:08:42.041Z,11.66
2019-01-05T11:09:42.034Z,11.69
2019-01-05T11:10:42.023Z,11.66
2019-01-05T11:11:42.009Z,11.62
2019-01-05T11:12:42.002Z,11.61
2019-01-05T11:13:41.985Z,11.66
2019-01-05T11:14:41.977Z,11.66
2019-01-05T11:15:41.966Z,11.62
2019-01-05T11:16:41.958Z,11.62
2019-01-05T11:17:41.944Z,11.52
2019-01-05T11:18:41.942Z,11.51
2019-01-05T11:19:41.928Z,11.33
2019-01-05T11:20:41.916Z,11.37
2019-01-05T11:21:41.900Z,11.11
2019-01-05T11:22:41.891Z,11.15
2019-01-05T11:23:41.877Z,11.17
2019-01-05T11:24:41.869Z,11.19
2019-01-05T11:25:41.854Z,11.28
2019-01-05T11:26:41.850Z,11.27
2019-01-05T11:27:41.832Z,11.36
2019-01-05T11:28:41.833Z,11.33
2019-01-05T11:29:41.814Z,11.31
2019-01-05T11:30:41.809Z,11.34
2019-01-05T11:31:41.787Z,11.34
2019-01-05T11:32:41.783Z,11.38
2019-01-05T11:33:41.769Z,11.49
2019-01-05T11:34:41.753Z,11.49
2019-01-05T11:35:41.746Z,11.41
2019-01-05T11:36:41.733Z,11.34
2019-01-05T11:37:41.722Z,11.30
2019-01-05T11:38:41.710Z,11.11
2019-01-05T11:39:41.699Z,11.12
2019-01-05T11:40:41.705Z,11.25
2019-01-05T11:41:41.676Z,11.18
2019-01-05T11:42:41.674Z,11.19
2019-01-05T11:43:41.655Z,11.00
2019-01-05T11:44:41.654Z,10.96
2019-01-05T11:45:41.631Z,10.94
2019-01-05T11:46:41.621Z,11.04
2019-01-05T11:47:41.622Z,11.17
2019-01-05T11:48:41.609Z,11.22
2019-01-05T11:49:41.590Z,11.37
2019-01-05T11:50:41.577Z,11.36
2019-01-05T11:51:41.582Z,11.46
2019-01-05T11:52:41.558Z,11.52
2019-01-05T11:53:41.549Z,11.49
2019-01-05T11:54:41.540Z,11.51
2019-01-05T11:55:41.526Z,11.54
2019-01-05T11:56:41.514Z,11.61
2019-01-05T11:57:41.504Z,11.64
2019-01-05T11:58:41.503Z,11.71
2019-01-05T11:59:41.483Z,11.71
2019-01-05T12:00:41.474Z,11.74
2019-01-05T12:01:41.455Z,11.61
2019-01-05T12:02:41.447Z,11.64
2019-01-05T12:03:41.438Z,11.69
2019-01-05T12:04:41.423Z,11.64
2019-01-05T12:05:41.410Z,11.55
2019-01-05T12:06:41.401Z,11.59
2019-01-05T12:07:41.396Z,11.59
2019-01-05T12:08:41.383Z,11.56
2019-01-05T12:09:41.383Z,11.61
2019-01-05T12:10:41.355Z,11.55
2019-01-05T12:11:41.346Z,11.49
2019-01-05T12:12:41.338Z,11.45
2019-01-05T12:13:41.326Z,11.36
2019-01-05T12:14:41.312Z,11.34
2019-01-05T12:15:41.300Z,11.33
2019-01-05T12:16:41.293Z,11.38
2019-01-05T12:17:41.278Z,11.41
2019-01-05T12:18:41.271Z,11.31
2019-01-05T12:19:41.272Z,11.25
2019-01-05T12:20:41.246Z,11.14
2019-01-05T12:21:41.235Z,11.22
2019-01-05T12:22:41.223Z,11.23
2019-01-05T12:23:41.212Z,11.30
2019-01-05T12:24:41.206Z,11.23
2019-01-05T12:25:41.192Z,11.27
2019-01-05T12:26:41.179Z,11.30
2019-01-05T12:27:41.171Z,11.30
2019-01-05T12:28:41.164Z,11.33
2019-01-05T12:29:41.153Z,11.28
2019-01-05T12:30:41.145Z,11.31
2019-01-05T12:31:41.124Z,11.17
2019-01-05T12:32:41.112Z,11.18
2019-01-05T12:33:41.101Z,11.00
2019-01-05T12:34:41.096Z,11.02
2019-01-05T12:35:41.079Z,11.00
2019-01-05T12:36:41.078Z,11.08
2019-01-05T12:37:41.063Z,11.08
2019-01-05T12:38:41.052Z,11.04
2019-01-05T12:39:41.037Z,10.99
2019-01-05T12:40:41.025Z,11.02
2019-01-05T12:41:41.016Z,10.97
2019-01-05T12:42:41.043Z,11.02
2019-01-05T12:43:40.997Z,10.94
2019-01-05T12:44:40.979Z,11.02
2019-01-05T12:45:40.968Z,10.94
2019-01-05T12:46:47.228Z,10.94
2019-01-05T12:48:05.426Z,10.89
2019-01-05T12:49:05.421Z,10.89
2019-01-05T12:50:05.408Z,10.89
2019-01-05T12:51:05.393Z,10.85
2019-01-05T12:52:05.383Z,10.92
2019-01-05T12:53:05.372Z,10.97
2019-01-05T12:54:05.359Z,10.86
2019-01-05T12:55:05.349Z,10.93
2019-01-05T12:56:05.335Z,10.97
2019-01-05T12:57:05.324Z,10.96
2019-01-05T12:58:05.313Z,10.99
2019-01-05T12:59:05.301Z,10.94
2019-01-05T13:00:05.291Z,10.93
2019-01-05T13:01:05.280Z,10.89
2019-01-05T13:02:05.281Z,10.77
2019-01-05T13:03:05.258Z,10.79
2019-01-05T13:04:05.245Z,10.78
2019-01-05T13:05:05.239Z,10.96
2019-01-05T13:06:05.224Z,10.82
2019-01-05T13:07:05.217Z,10.81
2019-01-05T13:08:05.200Z,10.79
2019-01-05T13:09:05.188Z,10.72
2019-01-05T13:10:05.176Z,10.75
2019-01-05T13:11:05.171Z,10.77